Time;durP1;ratioP1;P1;durP2;ratioP2;P2;SDS_P1;SDS_P2;PMS_P1;PMS_P2;Temp;Humidity;BMP_temperature;BMP_pressure;BME280_temperature;BME280_humidity;BME280_pressure;Samples;Min_cycle;Max_cycle;Signal;HPM_P1;HPM_P2
2021/12/24 00:00:23;;;;;;;58.73;35.55;;;;;;;-3.65;87.63;97812.94;1787996;77;21024;-73
2021/12/24 00:02:54;;;;;;;55.92;36.13;;;;;;;-3.65;87.67;97815.05;1819778;77;20903;-73
2021/12/24 00:05:21;;;;;;;53.63;32.08;;;;;;;-3.63;87.67;97809.48;1810034;77;20885;-73
2021/12/24 00:07:48;;;;;;;;;;;;;;;-3.61;87.73;97799.27;1811371;77;20934;-74
2021/12/24 00:10:15;;;;;;;57.63;33.40;;;;;;;-3.64;87.59;97786.55;1803420;77;21048;-74
2021/12/24 00:12:54;;;;;;;57.43;35.35;;;;;;;-3.63;87.72;97788.25;1776462;78;20911;-74
2021/12/24 00:15:33;;;;;;;60.17;35.00;;;;;;;-3.59;87.84;97786.02;1802546;77;20927;-73
2021/12/24 00:17:39;;;;;;;59.60;35.00;;;;;;;-3.56;87.92;97774.47;1806640;77;21044;-73
2021/12/24 00:20:31;;;;;;;56.28;33.20;;;;;;;-3.53;87.84;97766.74;1807451;77;21496;-73
2021/12/24 00:36:21;;;;;;;53.75;32.67;;;;;;;-3.52;87.80;97750.58;1808542;77;21897;-73
2021/12/24 00:38:49;;;;;;;56.90;34.97;;;;;;;-3.53;87.85;97753.98;1783862;79;20970;-73
2021/12/24 00:41:16;;;;;;;57.55;33.28;;;;;;;-3.54;87.80;97757.42;1755072;79;20954;-73
2021/12/24 00:43:42;;;;;;;54.00;32.35;;;;;;;-3.54;87.78;97751.05;1767725;79;20966;-73
2021/12/24 00:46:09;;;;;;;55.53;33.90;;;;;;;-3.55;87.79;97750.66;1745658;80;20931;-73
2021/12/24 00:48:35;;;;;;;56.43;33.67;;;;;;;-3.56;87.81;97753.23;1738283;80;21252;-73
2021/12/24 00:56:05;;;;;;;58.08;35.73;;;;;;;-3.51;88.06;97745.87;1745404;80;20860;-74
2021/12/24 00:58:32;;;;;;;52.48;33.35;;;;;;;-3.49;88.08;97745.41;1739198;81;21469;-73
2021/12/24 01:00:59;;;;;;;49.20;31.87;;;;;;;-3.44;88.24;97732.11;1738683;81;22052;-73
2021/12/24 01:03:26;;;;;;;54.18;35.15;;;;;;;-3.44;88.05;97724.91;1792641;78;21004;-73
2021/12/24 01:05:53;;;;;;;64.22;35.68;;;;;;;-3.46;87.95;97714.72;1799560;77;21969;-73
2021/12/24 01:08:20;;;;;;;58.02;34.92;;;;;;;-3.44;88.04;97718.08;1791015;77;20923;-73
2021/12/24 01:10:52;;;;;;;53.85;35.13;;;;;;;-3.42;88.05;97719.30;1796579;77;20992;-73
2021/12/24 01:13:19;;;;;;;59.13;35.33;;;;;;;-3.41;87.99;97723.11;1795777;77;21914;-73
2021/12/24 01:18:37;;;;;;;53.98;32.80;;;;;;;-3.31;88.26;97705.02;1801109;77;21045;-73
2021/12/24 01:21:11;;;;;;;57.23;35.70;;;;;;;-3.31;88.09;97707.58;1802793;77;20990;-73
2021/12/24 01:26:06;;;;;;;52.78;33.25;;;;;;;-3.38;87.91;97706.45;1814173;77;21101;-74
2021/12/24 01:39:39;;;;;;;57.20;34.55;;;;;;;-3.33;88.19;97706.77;1766982;79;21498;-73
2021/12/24 01:44:36;;;;;;;58.10;34.50;;;;;;;-3.32;88.19;97708.46;1743468;80;20972;-74
2021/12/24 01:47:08;;;;;;;57.03;36.77;;;;;;;-3.29;88.22;97703.28;1745859;80;20975;-74
2021/12/24 01:49:35;;;;;;;51.23;32.15;;;;;;;-3.25;88.39;97695.52;1740246;80;21645;-74
2021/12/24 01:52:04;;;;;;;58.87;34.08;;;;;;;-3.25;88.14;97694.66;1739281;80;21019;-73
2021/12/24 01:54:31;;;;;;;49.27;33.63;;;;;;;-3.29;88.06;97690.52;1739407;80;20957;-74
2021/12/24 01:56:58;;;;;;;55.47;37.07;;;;;;;-3.30;88.09;97686.30;1739174;80;21371;-73
2021/12/24 01:59:25;;;;;;;55.28;32.88;;;;;;;-3.29;88.18;97682.42;1711264;81;27202;-73
2021/12/24 02:01:52;;;;;;;50.20;31.87;;;;;;;-3.28;88.20;97678.14;1746477;80;20988;-73
2021/12/24 02:04:20;;;;;;;53.17;34.23;;;;;;;-3.33;87.96;97674.86;1729176;82;21513;-73
2021/12/24 02:06:48;;;;;;;59.30;36.50;;;;;;;-3.39;87.86;97674.16;1737879;80;20893;-74
2021/12/24 02:09:15;;;;;;;53.78;33.92;;;;;;;-3.42;87.97;97665.31;1735291;81;20919;-73
2021/12/24 02:11:42;;;;;;;58.95;38.00;;;;;;;-3.41;88.10;97662.31;1736743;80;20902;-73
2021/12/24 02:14:15;;;;;;;53.40;34.33;;;;;;;-3.40;88.16;97657.16;1755024;79;20923;-73
2021/12/24 02:30:00;;;;;;;47.93;32.30;;;;;;;-3.19;88.42;97646.04;1811397;77;21892;-73
2021/12/24 02:32:27;;;;;;;49.77;32.08;;;;;;;-3.16;88.46;97648.06;1810430;77;20889;-73
2021/12/24 02:34:53;;;;;;;50.13;33.53;;;;;;;-3.13;88.54;97639.49;1805941;77;21610;-73
2021/12/24 02:37:20;;;;;;;53.02;33.73;;;;;;;-3.12;88.46;97632.22;1808589;77;20953;-73
2021/12/24 02:39:47;;;;;;;47.67;31.83;;;;;;;-3.11;88.46;97632.61;1795770;77;20954;-73
2021/12/24 02:42:19;;;;;;;51.25;32.08;;;;;;;-3.10;88.46;97617.71;1808058;77;21831;-73
2021/12/24 02:44:49;;;;;;;56.28;34.08;;;;;;;-3.14;88.25;97622.48;1812562;77;20953;-73
2021/12/24 02:55:11;;;;;;;47.55;31.35;;;;;;;-3.28;88.07;97605.41;1733887;80;21375;-73
2021/12/24 02:57:38;;;;;;;55.50;34.03;;;;;;;-3.31;88.26;97593.56;1738779;80;20896;-73
2021/12/24 03:00:15;;;;;;;51.28;32.78;;;;;;;-3.30;88.34;97594.43;1811054;77;20858;-73
2021/12/24 03:02:39;;;;;;;56.37;32.78;;;;;;;-3.28;88.37;97591.38;1810040;77;20927;-74
2021/12/24 03:05:07;;;;;;;64.30;36.45;;;;;;;-3.28;88.36;97587.55;1818266;77;21564;-73
2021/12/24 03:07:34;;;;;;;56.45;33.83;;;;;;;-3.28;88.46;97580.72;1812328;77;21083;-74
2021/12/24 03:10:00;;;;;;;53.07;33.37;;;;;;;-3.28;88.42;97569.23;1815935;77;20932;-74
2021/12/24 03:12:29;;;;;;;55.70;33.20;;;;;;;-3.29;88.32;97573.12;1795767;77;20966;-73
2021/12/24 03:14:57;;;;;;;53.10;32.70;;;;;;;-3.33;88.32;97574.06;1805527;77;21481;-73
2021/12/24 03:17:25;;;;;;;53.95;34.53;;;;;;;-3.29;88.51;97573.12;1815212;77;20989;-73
2021/12/24 03:19:55;;;;;;;57.35;33.55;;;;;;;-3.30;88.45;97572.73;1791532;77;21088;-74
2021/12/24 03:25:06;;;;;;;54.33;33.10;;;;;;;-3.29;88.47;97557.81;1813009;77;20945;-74
2021/12/24 03:27:32;;;;;;;;;;;;;;;-3.28;88.52;97559.48;1804464;78;20919;-74
2021/12/24 03:29:59;;;;;;;54.08;35.10;;;;;;;-3.30;88.43;97552.32;1815833;77;20072;-74
2021/12/24 03:32:26;;;;;;;54.73;33.23;;;;;;;-3.32;88.44;97552.79;1814359;77;21117;-73
2021/12/24 03:34:53;;;;;;;52.17;32.70;;;;;;;-3.33;88.35;97556.20;1813953;77;20999;-74
2021/12/24 03:37:20;;;;;;;60.60;33.90;;;;;;;-3.33;88.33;97556.20;1809339;77;20996;-74
2021/12/24 03:39:47;;;;;;;55.80;32.98;;;;;;;-3.37;88.33;97551.18;1817776;77;20899;-73
2021/12/24 03:42:13;;;;;;;54.07;33.00;;;;;;;-3.32;88.58;97541.31;1803212;77;20969;-74
2021/12/24 03:44:53;;;;;;;51.88;31.68;;;;;;;-3.25;88.67;97544.08;1812881;77;22101;-74
2021/12/24 03:47:17;;;;;;;56.63;33.58;;;;;;;-3.26;88.55;97529.66;1812445;77;21446;-74
2021/12/24 03:49:56;;;;;;;57.75;34.23;;;;;;;-3.24;88.51;97525.36;1753384;79;21479;-74
2021/12/24 03:52:21;;;;;;;53.15;34.13;;;;;;;-3.19;88.65;97526.07;1769955;79;20922;-74
2021/12/24 03:54:58;;;;;;;59.67;34.33;;;;;;;-3.20;88.55;97521.83;1741725;80;21546;-74
2021/12/24 03:57:32;;;;;;;50.95;31.42;;;;;;;-3.18;88.54;97513.70;1775006;78;21958;-74
2021/12/24 04:00:07;;;;;;;50.12;32.93;;;;;;;-3.13;88.68;97508.03;1806559;77;21416;-73
2021/12/24 04:02:34;;;;;;;57.33;34.58;;;;;;;-3.15;88.46;97504.67;1813781;77;21510;-73
2021/12/24 04:05:01;;;;;;;60.10;34.23;;;;;;;-3.18;88.40;97503.48;1795840;78;21055;-73
2021/12/24 04:07:28;;;;;;;61.83;35.43;;;;;;;-3.18;88.36;97509.87;1822570;77;20935;-73
2021/12/24 04:10:04;;;;;;;56.03;34.30;;;;;;;-3.15;88.65;97510.61;1794998;77;21635;-73
2021/12/24 04:12:29;;;;;;;52.40;32.20;;;;;;;-3.11;88.57;97512.62;1796166;77;21063;-73
2021/12/24 04:14:56;;;;;;;55.58;32.55;;;;;;;-3.12;88.48;97514.80;1777986;78;20932;-73
2021/12/24 04:17:24;;;;;;;54.48;35.03;;;;;;;-3.16;88.37;97519.60;1791514;78;20931;-73
2021/12/24 04:25:20;;;;;;;58.33;34.98;;;;;;;-3.14;88.68;97516.55;1796319;77;20927;-73
2021/12/24 04:27:49;;;;;;;53.73;33.43;;;;;;;-3.14;88.75;97519.09;1809629;77;20904;-73
2021/12/24 04:30:20;;;;;;;55.40;35.05;;;;;;;-3.13;88.82;97518.23;1801671;77;20916;-72
2021/12/24 04:32:54;;;;;;;52.85;33.40;;;;;;;-3.13;88.74;97515.69;1769849;79;20884;-73
2021/12/24 04:51:34;;;;;;;58.40;36.23;;;;;;;-2.92;89.04;97510.40;1736192;81;20931;-73
2021/12/24 05:02:48;;;;;;;57.03;33.92;;;;;;;-2.81;89.08;97508.81;1736566;80;21100;-73
2021/12/24 05:04:25;;;;;;;58.40;34.55;;;;;;;-2.82;88.98;97509.71;1723577;81;20915;-73
2021/12/24 05:06:56;;;;;;;57.13;34.90;;;;;;;-2.83;88.96;97502.91;1737614;81;21018;-73
2021/12/24 05:09:19;;;;;;;58.83;34.83;;;;;;;-2.81;89.05;97504.55;1737400;81;20971;-73
2021/12/24 05:11:43;;;;;;;61.02;35.73;;;;;;;-2.80;88.98;97500.27;1742843;80;20959;-73
2021/12/24 05:14:14;;;;;;;55.38;34.43;;;;;;;-2.79;88.94;97491.74;1743090;81;21071;-73
2021/12/24 05:16:44;;;;;;;57.78;34.98;;;;;;;-2.77;89.10;97491.27;1739448;81;21023;-72
2021/12/24 05:21:33;;;;;;;55.38;34.53;;;;;;;-2.76;89.18;97492.48;1736927;81;20945;-73
2021/12/24 05:21:35;;;;;;;61.53;37.28;;;;;;;-2.73;89.21;97494.94;1754228;77;20909;-73
2021/12/24 05:24:06;;;;;;;60.90;34.65;;;;;;;-2.71;89.22;97491.08;1811822;77;20903;-72
2021/12/24 05:26:35;;;;;;;62.70;35.73;;;;;;;-2.69;89.23;97480.35;1809558;77;21170;-73
2021/12/24 05:29:04;;;;;;;55.43;34.00;;;;;;;-2.68;89.35;97487.16;1779866;79;21448;-73
2021/12/24 05:31:32;;;;;;;55.30;34.90;;;;;;;-2.67;89.31;97488.81;1748648;80;21437;-72
2021/12/24 05:34:00;;;;;;;57.27;33.42;;;;;;;-2.64;89.35;97483.61;1737951;79;20935;-73
2021/12/24 05:36:26;;;;;;;;;;;;;;;-2.64;89.33;97475.95;1750788;80;20923;-73
2021/12/24 05:38:54;;;;;;;53.83;31.75;;;;;;;-2.65;89.30;97473.00;1725544;80;21330;-73
2021/12/24 05:41:23;;;;;;;53.90;33.13;;;;;;;-2.63;89.39;97469.97;1761368;80;20974;-72
2021/12/24 05:43:51;;;;;;;62.10;35.73;;;;;;;-2.64;89.39;97467.45;1734604;80;20902;-73
2021/12/24 05:46:18;;;;;;;55.73;32.98;;;;;;;-2.64;89.37;97460.61;1744719;80;21462;-74
2021/12/24 05:48:48;;;;;;;55.38;32.53;;;;;;;-2.61;89.42;97454.13;1742084;80;20928;-72
2021/12/24 05:51:14;;;;;;;55.20;31.90;;;;;;;-2.59;89.41;97448.54;1740826;80;21100;-73
2021/12/24 05:53:41;;;;;;;55.83;32.20;;;;;;;-2.61;89.48;97443.91;1744688;80;21548;-70
2021/12/24 05:56:07;;;;;;;52.85;33.60;;;;;;;-2.62;89.52;97440.97;1739955;81;22551;-71
2021/12/24 05:58:34;;;;;;;55.20;35.13;;;;;;;-2.59;89.58;97442.60;1739793;80;21036;-71
2021/12/24 06:01:03;;;;;;;53.90;32.85;;;;;;;-2.53;89.72;97442.41;1740292;80;22594;-72
2021/12/24 06:03:30;;;;;;;52.20;32.28;;;;;;;-2.45;89.82;97442.17;1742367;80;21192;-73
2021/12/24 06:05:59;;;;;;;51.37;30.25;;;;;;;-2.41;89.83;97429.67;1812334;77;20918;-72
2021/12/24 06:08:26;;;;;;;58.10;32.85;;;;;;;-2.38;89.80;97423.19;1729346;81;20980;-73
2021/12/24 06:10:53;;;;;;;51.92;32.67;;;;;;;-2.37;89.81;97425.70;1804981;77;21400;-73
2021/12/24 06:13:20;;;;;;;55.23;33.67;;;;;;;-2.34;89.86;97424.33;1808996;77;20935;-73
2021/12/24 06:15:49;;;;;;;50.43;30.52;;;;;;;-2.32;89.83;97412.80;1818951;77;21945;-73
2021/12/24 06:18:23;;;;;;;47.23;28.85;;;;;;;-2.30;89.74;97422.08;1813280;77;20907;-72
2021/12/24 06:20:47;;;;;;;51.60;32.28;;;;;;;-2.29;89.72;97420.36;1804960;77;20893;-72
2021/12/24 06:23:14;;;;;;;56.23;33.77;;;;;;;-2.28;89.85;97420.73;1809993;77;20961;-73
2021/12/24 06:25:41;;;;;;;53.50;30.10;;;;;;;-2.28;89.85;97420.73;1815934;77;21623;-73
2021/12/24 06:28:07;;;;;;;52.40;34.18;;;;;;;-2.27;89.73;97426.23;1810733;77;21421;-73
2021/12/24 06:30:34;;;;;;;54.20;32.08;;;;;;;-2.26;89.70;97425.37;1816137;77;20869;-73
2021/12/24 06:33:01;;;;;;;49.35;30.57;;;;;;;-2.27;89.70;97419.84;1808802;77;21508;-74
2021/12/24 06:35:31;;;;;;;53.68;32.35;;;;;;;-2.26;89.78;97421.53;1805105;77;20962;-74
2021/12/24 06:37:58;;;;;;;51.60;31.75;;;;;;;-2.26;89.78;97420.25;1807380;77;20960;-73
2021/12/24 06:40:25;;;;;;;53.70;33.45;;;;;;;-2.25;89.82;97420.63;1810847;77;21003;-73
2021/12/24 06:42:52;;;;;;;58.90;33.83;;;;;;;-2.22;89.90;97419.25;1820129;77;20938;-73
2021/12/24 06:45:23;;;;;;;53.80;31.13;;;;;;;-2.20;89.96;97412.38;1774428;79;20989;-74
2021/12/24 06:47:48;;;;;;;51.18;31.87;;;;;;;-2.16;90.01;97415.66;1808775;77;21579;-73
2021/12/24 06:50:15;;;;;;;55.03;32.63;;;;;;;-2.14;90.09;97404.95;1794503;78;20972;-73
2021/12/24 06:52:41;;;;;;;51.80;32.90;;;;;;;-2.15;90.02;97397.73;1810099;77;21061;-74
2021/12/24 06:55:10;;;;;;;57.08;33.02;;;;;;;-2.13;90.10;97397.66;1815381;77;20893;-74
2021/12/24 06:57:40;;;;;;;55.90;34.00;;;;;;;-2.12;90.10;97402.73;1818141;77;20952;-73
2021/12/24 07:00:10;;;;;;;51.70;32.45;;;;;;;-2.11;90.08;97406.95;1815421;77;20904;-73
2021/12/24 07:02:37;;;;;;;57.33;33.23;;;;;;;-2.10;90.09;97407.36;1810386;77;20966;-72
2021/12/24 07:05:04;;;;;;;57.73;34.87;;;;;;;-2.06;90.22;97415.31;1811993;77;22100;-71
2021/12/24 07:07:31;;;;;;;49.18;31.75;;;;;;;-2.06;90.09;97402.52;1822834;77;21419;-72
2021/12/24 07:09:58;;;;;;;56.13;33.23;;;;;;;-2.06;90.08;97405.08;1813325;77;20924;-72
2021/12/24 07:12:24;;;;;;;56.15;31.80;;;;;;;-2.07;90.09;97400.86;1806067;77;21523;-73
2021/12/24 07:14:51;;;;;;;55.20;33.45;;;;;;;-2.06;90.12;97407.64;1806074;77;20941;-73
2021/12/24 07:17:18;;;;;;;56.57;34.23;;;;;;;-2.04;90.21;97414.82;1811369;77;21100;-74
2021/12/24 07:19:45;;;;;;;54.42;32.85;;;;;;;-1.99;90.32;97415.09;1816230;77;20907;-74
2021/12/24 07:22:13;;;;;;;60.38;37.48;;;;;;;-1.97;90.28;97413.33;1811825;77;26315;-73
2021/12/24 07:24:40;;;;;;;62.58;37.58;;;;;;;-1.95;90.31;97416.68;1807584;77;20949;-73
2021/12/24 07:27:07;;;;;;;61.05;36.20;;;;;;;-1.95;90.26;97410.28;1812745;77;20904;-74
2021/12/24 07:29:37;;;;;;;60.20;35.23;;;;;;;-1.91;90.35;97423.34;1809208;77;22560;-72
2021/12/24 07:32:05;;;;;;;53.52;33.02;;;;;;;-1.91;90.33;97423.34;1815782;77;21355;-71
2021/12/24 07:34:33;;;;;;;58.55;36.20;;;;;;;-1.89;90.32;97422.86;1806431;77;21464;-71
2021/12/24 07:37:04;;;;;;;53.35;34.45;;;;;;;-1.89;90.34;97422.86;1816065;77;20950;-71
2021/12/24 07:39:31;;;;;;;57.67;35.63;;;;;;;-1.83;90.52;97423.92;1804827;77;20890;-70
2021/12/24 07:41:58;;;;;;;56.90;34.70;;;;;;;-1.80;90.45;97413.58;1815448;77;21100;-71
2021/12/24 07:44:26;;;;;;;65.83;33.95;;;;;;;-1.80;90.40;97416.97;1807139;77;20930;-72
2021/12/24 07:46:58;;;;;;;49.58;31.75;;;;;;;-1.74;90.55;97421.03;1797706;77;21657;-70
2021/12/24 07:54:32;;;;;;;53.90;34.40;;;;;;;-1.64;90.53;97415.17;1813333;77;21110;-71
2021/12/24 07:57:02;;;;;;;52.33;32.58;;;;;;;-1.62;90.52;97406.55;1810673;77;20955;-70
2021/12/24 07:59:30;;;;;;;51.18;32.13;;;;;;;-1.54;90.66;97406.70;1808229;77;20959;-70
2021/12/24 08:01:58;;;;;;;;;;;;;;;-1.49;90.63;97392.03;1819511;77;20915;-70
2021/12/24 08:04:25;;;;;;;52.65;31.55;;;;;;;-1.43;90.67;97393.08;1807299;77;20108;-71
2021/12/24 08:06:55;;;;;;;51.60;30.72;;;;;;;-1.40;90.68;97395.11;1815253;77;21796;-70
2021/12/24 08:09:22;;;;;;;50.23;30.35;;;;;;;-1.40;90.55;97397.66;1816011;77;21431;-71
2021/12/24 08:11:51;;;;;;;49.33;30.30;;;;;;;-1.33;90.69;97396.98;1814042;77;20966;-71
2021/12/24 08:14:19;;;;;;;44.08;27.77;;;;;;;-1.26;90.77;97399.72;1799832;77;20945;-71
2021/12/24 08:16:47;;;;;;;46.70;30.10;;;;;;;-1.20;90.79;97394.37;1805043;77;20988;-69
2021/12/24 08:19:18;;;;;;;45.98;28.23;;;;;;;-1.15;90.71;97392.48;1813792;77;24750;-70
2021/12/24 08:21:45;;;;;;;52.50;30.52;;;;;;;-1.13;90.70;97388.11;1808019;77;20918;-69
2021/12/24 08:24:13;;;;;;;48.77;31.07;;;;;;;-1.09;90.66;97390.55;1815628;77;21424;-69
2021/12/24 08:26:43;;;;;;;49.58;28.65;;;;;;;-1.08;90.60;97394.80;1805207;77;20912;-70
2021/12/24 08:29:12;;;;;;;48.28;27.77;;;;;;;-1.05;90.62;97397.25;1807229;77;21092;-70
2021/12/24 08:31:41;;;;;;;46.13;29.25;;;;;;;-1.03;90.60;97395.47;1744307;80;20913;-70
2021/12/24 08:34:07;;;;;;;45.75;28.10;;;;;;;-1.03;90.57;97386.05;1736907;80;20951;-69
2021/12/24 08:36:36;;;;;;;48.68;28.50;;;;;;;-0.99;90.66;97385.03;1811880;77;21400;-70
2021/12/24 08:39:05;;;;;;;48.17;29.98;;;;;;;-0.94;90.77;97381.02;1791534;78;21036;-67
2021/12/24 08:41:32;;;;;;;39.85;27.50;;;;;;;-0.91;90.78;97377.05;1816052;77;21522;-71
2021/12/24 08:43:59;;;;;;;44.77;27.75;;;;;;;-0.91;90.75;97369.38;1803632;77;21244;-71
2021/12/24 08:46:28;;;;;;;44.93;26.82;;;;;;;-0.84;90.84;97373.38;1804965;77;20931;-71
2021/12/24 08:48:54;;;;;;;41.77;27.70;;;;;;;-0.79;91.01;97368.88;1793739;77;21029;-71
2021/12/24 08:51:21;;;;;;;40.38;27.67;;;;;;;-0.74;90.88;97365.70;1794563;77;21030;-70
2021/12/24 08:53:48;;;;;;;47.33;28.07;;;;;;;-0.69;90.92;97367.63;1809492;77;20859;-72
2021/12/24 08:56:17;;;;;;;39.67;26.17;;;;;;;-0.64;90.95;97366.60;1803259;77;21475;-71
2021/12/24 08:58:43;;;;;;;41.13;27.58;;;;;;;-0.63;90.89;97370.86;1817645;77;21150;-71
2021/12/24 09:01:10;;;;;;;45.35;27.07;;;;;;;-0.64;90.85;97364.05;1808368;77;21463;-71
2021/12/24 09:03:36;;;;;;;35.55;24.92;;;;;;;-0.62;90.89;97364.37;1807541;77;20919;-71
2021/12/24 09:06:03;;;;;;;39.27;25.88;;;;;;;-0.60;90.87;97354.07;1796885;77;21609;-70
2021/12/24 09:08:30;;;;;;;34.70;23.27;;;;;;;-0.59;90.92;97351.88;1810406;77;21134;-70
2021/12/24 09:10:57;;;;;;;35.17;23.38;;;;;;;-0.55;90.89;97351.70;1808516;77;20879;-72
2021/12/24 09:13:24;;;;;;;37.17;23.67;;;;;;;-0.53;90.94;97351.66;1817160;77;20923;-71
2021/12/24 09:15:53;;;;;;;32.63;24.35;;;;;;;-0.49;90.93;97350.63;1814975;77;21442;-71
2021/12/24 09:18:20;;;;;;;35.50;24.02;;;;;;;-0.46;90.93;97340.24;1822154;77;22119;-71
2021/12/24 09:20:48;;;;;;;38.88;25.05;;;;;;;-0.46;90.85;97329.98;1820950;77;22935;-71
2021/12/24 09:23:17;;;;;;;39.75;25.60;;;;;;;-0.46;90.80;97335.94;1812109;77;20855;-69
2021/12/24 09:25:44;;;;;;;41.50;27.60;;;;;;;-0.50;90.71;97343.84;1814819;77;20918;-72
2021/12/24 09:28:12;;;;;;;39.08;25.30;;;;;;;-0.49;90.86;97333.96;1799227;77;20961;-72
2021/12/24 09:30:41;;;;;;;39.30;24.95;;;;;;;-0.49;90.93;97330.12;1741345;79;21577;-71
2021/12/24 09:33:10;;;;;;;34.08;24.05;;;;;;;-0.48;90.89;97329.20;1767215;79;21172;-72
2021/12/24 09:35:37;;;;;;;37.88;23.75;;;;;;;-0.48;90.87;97329.20;1776781;79;21905;-72
2021/12/24 09:38:05;;;;;;;36.05;22.40;;;;;;;-0.47;90.93;97325.77;1808735;77;21000;-71
2021/12/24 09:40:33;;;;;;;35.70;24.40;;;;;;;-0.41;91.05;97328.07;1805561;77;21072;-73
2021/12/24 09:43:01;;;;;;;34.65;23.05;;;;;;;-0.34;91.08;97326.91;1822432;77;20965;-73
2021/12/24 09:45:28;;;;;;;30.27;21.00;;;;;;;-0.26;91.12;97327.42;1812245;77;21830;-72
2021/12/24 09:47:55;;;;;;;31.07;21.30;;;;;;;-0.16;91.01;97327.05;1813677;77;21600;-71
2021/12/24 09:50:28;;;;;;;32.42;21.70;;;;;;;-0.06;91.09;97314.20;1809024;77;20945;-71
2021/12/24 09:52:55;;;;;;;29.77;20.68;;;;;;;0.10;91.19;97317.77;1772282;79;20884;-72
2021/12/24 09:55:26;;;;;;;31.00;19.62;;;;;;;0.21;91.15;97311.72;1734145;80;20975;-72
2021/12/24 09:57:54;;;;;;;30.65;22.62;;;;;;;0.27;90.97;97309.79;1738014;81;22188;-72
2021/12/24 10:00:25;;;;;;;27.85;19.45;;;;;;;0.29;90.87;97302.86;1730862;80;21923;-72
2021/12/24 10:02:55;;;;;;;30.82;19.92;;;;;;;0.31;90.70;97302.32;1747952;80;20944;-72
2021/12/24 10:05:36;;;;;;;26.12;19.25;;;;;;;0.36;90.82;97296.53;1800768;77;21423;-71
2021/12/24 10:08:22;;;;;;;26.17;19.00;;;;;;;0.38;90.74;97292.17;1790662;77;21028;-71
2021/12/24 10:10:54;;;;;;;32.55;19.30;;;;;;;0.37;90.68;97285.38;1806198;77;21033;-70
2021/12/24 10:13:43;;;;;;;26.87;19.37;;;;;;;0.35;90.59;97284.61;1788921;77;21423;-68
2021/12/24 10:16:22;;;;;;;25.37;18.32;;;;;;;0.31;90.54;97290.77;1801243;77;21493;-67
2021/12/24 10:18:56;;;;;;;23.67;16.93;;;;;;;0.25;90.56;97292.33;1798674;77;22743;-67
2021/12/24 10:21:30;;;;;;;27.93;20.17;;;;;;;0.18;90.53;97283.62;1799212;77;20932;-67
2021/12/24 10:24:19;;;;;;;24.77;18.10;;;;;;;0.17;90.66;97292.23;1757847;80;21065;-68
2021/12/24 10:26:52;;;;;;;22.05;16.37;;;;;;;0.18;90.80;97288.77;1739302;80;20988;-68
2021/12/24 10:29:22;;;;;;;24.40;17.73;;;;;;;0.19;90.76;97290.41;1751890;79;20990;-69
2021/12/24 10:31:54;;;;;;;22.13;15.53;;;;;;;0.19;90.85;97284.00;1813124;77;21507;-68
2021/12/24 10:34:33;;;;;;;24.90;16.42;;;;;;;0.22;90.78;97284.31;1797777;77;21947;-69
2021/12/24 10:37:22;;;;;;;24.77;18.85;;;;;;;0.23;90.88;97280.05;1802099;77;21858;-68
2021/12/24 10:39:58;;;;;;;20.45;15.03;;;;;;;0.24;90.87;97277.39;1789196;78;20989;-67
2021/12/24 10:42:35;;;;;;;20.02;15.13;;;;;;;0.28;90.85;97267.81;1808820;77;26306;-67
2021/12/24 10:45:08;;;;;;;22.27;17.52;;;;;;;0.27;90.79;97263.59;1782051;77;21036;-68
2021/12/24 10:47:40;;;;;;;24.20;17.80;;;;;;;0.20;90.70;97263.88;1804761;77;20980;-67
2021/12/24 10:53:13;;;;;;;22.62;16.75;;;;;;;0.11;90.85;97262.15;1805569;77;20992;-71
2021/12/24 10:55:38;;;;;;;24.70;17.52;;;;;;;0.08;90.90;97255.42;1803429;78;20911;-67
2021/12/24 10:58:10;;;;;;;29.85;17.00;;;;;;;0.06;90.94;97248.27;1799798;77;21599;-68
2021/12/24 11:00:48;;;;;;;23.07;16.77;;;;;;;0.08;91.01;97243.88;1797816;77;21475;-67
2021/12/24 11:03:22;;;;;;;;;;;;;;;0.12;91.09;97244.13;1736149;80;21825;-68
2021/12/24 11:05:54;;;;;;;26.25;18.98;;;;;;;0.17;91.07;97246.05;1704581;82;20148;-67
2021/12/24 11:08:26;;;;;;;30.82;20.45;;;;;;;0.15;91.00;97246.56;1685750;82;21806;-68
2021/12/24 11:10:57;;;;;;;30.62;21.87;;;;;;;0.15;91.04;97244.45;1710804;81;20930;-68
2021/12/24 11:13:32;;;;;;;28.20;19.73;;;;;;;0.12;91.03;97241.56;1719181;81;21061;-68
2021/12/24 11:16:06;;;;;;;28.47;19.23;;;;;;;0.13;91.07;97232.95;1702440;82;21105;-67
2021/12/24 11:18:39;;;;;;;24.27;18.35;;;;;;;0.09;91.07;97241.71;1704419;82;21028;-68
2021/12/24 11:21:09;;;;;;;23.38;19.15;;;;;;;0.06;90.94;97232.87;1701226;82;21017;-68
2021/12/24 11:23:41;;;;;;;25.08;17.23;;;;;;;0.02;91.03;97232.61;1705988;81;21726;-67
2021/12/24 11:26:17;;;;;;;22.60;16.65;;;;;;;0.02;91.14;97232.61;1704309;82;21062;-68
2021/12/24 11:28:45;;;;;;;21.17;16.82;;;;;;;0.04;91.24;97228.25;1696813;82;21220;-66
2021/12/24 11:31:22;;;;;;;23.30;18.02;;;;;;;0.03;91.23;97217.62;1702184;82;20954;-67
2021/12/24 11:33:52;;;;;;;22.65;17.15;;;;;;;0.09;91.39;97222.47;1683324;83;21020;-68
2021/12/24 11:36:22;;;;;;;19.67;15.13;;;;;;;0.26;91.67;97210.61;1703881;83;20939;-68
2021/12/24 11:38:52;;;;;;;23.22;16.40;;;;;;;0.40;91.57;97210.80;1754237;80;21004;-68
2021/12/24 11:41:25;;;;;;;18.75;15.55;;;;;;;0.46;91.34;97209.22;1776677;79;21083;-68
2021/12/24 11:43:55;;;;;;;21.40;16.23;;;;;;;0.52;91.27;97205.08;1795457;77;21073;-68
2021/12/24 11:46:24;;;;;;;20.37;14.65;;;;;;;0.53;91.07;97201.59;1814308;77;20884;-68
2021/12/24 11:48:55;;;;;;;20.57;15.50;;;;;;;0.53;91.12;97217.00;1752871;79;20962;-69
2021/12/24 11:51:33;;;;;;;20.15;15.43;;;;;;;0.55;91.21;97206.67;1725078;81;20925;-68
2021/12/24 11:54:04;;;;;;;21.95;15.25;;;;;;;0.61;91.29;97199.50;1771348;79;21246;-68
2021/12/24 11:56:50;;;;;;;19.02;15.13;;;;;;;0.60;91.21;97202.16;1729850;80;20858;-68
2021/12/24 11:59:18;;;;;;;18.40;15.43;;;;;;;0.61;91.32;97203.35;1719959;79;21967;-69
2021/12/24 12:01:47;;;;;;;19.50;15.30;;;;;;;0.57;91.07;97195.42;1724165;80;20930;-68
2021/12/24 12:04:20;;;;;;;18.27;14.73;;;;;;;0.49;91.02;97197.52;1768872;79;20888;-68
2021/12/24 12:06:47;;;;;;;18.48;14.73;;;;;;;0.46;91.19;97192.53;1778486;79;21684;-69
2021/12/24 12:09:17;;;;;;;20.57;14.13;;;;;;;0.46;91.31;97189.14;1753030;80;20939;-66
2021/12/24 12:11:48;;;;;;;16.97;14.03;;;;;;;0.46;91.36;97191.25;1813691;77;20916;-66
2021/12/24 12:14:23;;;;;;;16.70;13.45;;;;;;;0.46;91.36;97184.84;1765963;79;20966;-66
2021/12/24 12:17:01;;;;;;;20.35;14.70;;;;;;;0.41;91.29;97186.78;1712272;81;20964;-66
2021/12/24 12:25:11;;;;;;;16.42;13.10;;;;;;;0.36;91.42;97175.89;1809472;77;21067;-66
2021/12/24 12:27:54;;;;;;;16.52;12.68;;;;;;;0.35;91.58;97164.80;1816038;77;20962;-66
2021/12/24 12:30:42;;;;;;;16.93;12.37;;;;;;;0.42;91.71;97153.77;1810773;77;20923;-66
2021/12/24 12:33:13;;;;;;;17.73;13.75;;;;;;;0.46;91.69;97155.77;1808110;77;21474;-66
2021/12/24 12:36:02;;;;;;;17.45;12.55;;;;;;;0.46;91.63;97153.20;1802071;77;20922;-67
2021/12/24 12:38:45;;;;;;;15.23;11.20;;;;;;;0.47;91.63;97153.11;1758394;79;20962;-66
2021/12/24 12:41:36;;;;;;;17.50;13.88;;;;;;;0.39;91.52;97155.20;1768400;79;20883;-66
2021/12/24 12:44:07;;;;;;;19.87;12.50;;;;;;;0.35;91.62;97149.85;1770907;79;21048;-66
2021/12/24 12:46:39;;;;;;;17.12;12.33;;;;;;;0.29;91.57;97146.30;1775820;79;21172;-66
2021/12/24 12:49:10;;;;;;;20.62;11.95;;;;;;;0.28;91.77;97147.19;1694301;80;20978;-66
2021/12/24 12:51:58;;;;;;;25.25;13.48;;;;;;;0.31;91.84;97144.47;1717728;80;20959;-66
2021/12/24 12:54:56;;;;;;;23.85;14.43;;;;;;;0.29;91.79;97149.69;1774063;78;20890;-66
2021/12/24 12:57:33;;;;;;;19.70;13.40;;;;;;;0.31;91.92;97149.60;1780580;78;21909;-68
2021/12/24 13:00:20;;;;;;;13.55;10.72;;;;;;;0.36;92.07;97152.79;1738819;79;21042;-69
2021/12/24 13:05:41;;;;;;;10.68;8.68;;;;;;;0.41;91.93;97155.98;1786962;78;20890;-69
2021/12/24 13:08:22;;;;;;;14.40;8.93;;;;;;;0.44;92.01;97158.39;1784225;78;20925;-67
2021/12/24 13:11:12;;;;;;;10.50;8.25;;;;;;;0.44;91.96;97178.94;1782878;78;21017;-68
2021/12/24 13:13:54;;;;;;;12.37;8.68;;;;;;;0.42;91.93;97178.16;1760815;77;21098;-68
2021/12/24 13:16:31;;;;;;;9.10;7.62;;;;;;;0.38;92.04;97180.51;1807640;77;20982;-68
2021/12/24 13:19:22;;;;;;;10.80;7.80;;;;;;;0.35;91.92;97184.50;1805022;77;20872;-68
2021/12/24 13:24:16;;;;;;;10.08;6.72;;;;;;;0.31;92.04;97182.97;1807725;77;20957;-69